createdAt,value
2018-05-16T00:01:20.705Z,91.50
2018-05-16T00:03:48.974Z,91.70
2018-05-16T00:06:17.696Z,91.10
2018-05-16T00:08:45.953Z,91.10
2018-05-16T00:14:01.485Z,91.00
2018-05-16T00:19:48.377Z,91.60
2018-05-16T00:22:17.220Z,91.80
2018-05-16T00:24:44.720Z,91.80
2018-05-16T00:27:35.018Z,92.40
2018-05-16T00:30:09.596Z,92.20
2018-05-16T01:02:41.512Z,93.20
2018-05-16T01:05:09.023Z,93.40
2018-05-16T01:07:36.571Z,93.50
2018-05-16T01:10:05.148Z,93.30
2018-05-16T01:12:32.664Z,93.20
2018-05-16T01:15:00.228Z,93.10
2018-05-16T01:17:28.507Z,93.50
2018-05-16T01:19:56.801Z,93.00
2018-05-16T01:22:24.324Z,93.00
2018-05-16T01:24:51.826Z,93.50
2018-05-16T01:27:19.348Z,93.00
2018-05-16T01:29:47.618Z,93.20
2018-05-16T01:32:17.894Z,93.00
2018-05-16T01:34:45.409Z,93.00
2018-05-16T01:37:13.690Z,93.30
2018-05-16T01:39:41.978Z,93.20
2018-05-16T01:42:09.482Z,93.10
2018-05-16T02:23:05.029Z,94.00
2018-05-16T02:25:32.569Z,94.00
2018-05-16T02:28:00.852Z,94.00
2018-05-16T02:30:28.377Z,93.90
2018-05-16T02:32:55.904Z,94.00
2018-05-16T02:35:23.418Z,93.90
2018-05-16T02:37:51.723Z,93.70
2018-05-16T02:40:19.234Z,93.70
2018-05-16T02:42:46.750Z,93.70
2018-05-16T02:45:14.750Z,93.80
2018-05-16T02:47:42.279Z,93.60
2018-05-16T02:50:10.162Z,93.40
2018-05-16T03:06:05.138Z,93.70
2018-05-16T03:08:32.698Z,93.70
2018-05-16T03:11:00.339Z,93.90
2018-05-16T03:13:28.244Z,94.20
2018-05-16T03:15:56.284Z,94.40
2018-05-16T03:18:39.061Z,93.20
2018-05-16T03:21:13.025Z,92.80
2018-05-16T03:26:59.305Z,93.00
2018-05-16T03:29:27.575Z,92.20
2018-05-16T03:31:55.081Z,92.20
2018-05-16T03:34:22.613Z,92.80
2018-05-16T03:36:54.315Z,92.90
2018-05-16T03:39:31.348Z,92.90
2018-05-16T03:42:04.281Z,93.20
2018-05-16T03:44:32.342Z,93.20
2018-05-16T03:47:11.874Z,93.20
2018-05-16T03:49:39.441Z,93.20
2018-05-16T03:52:07.083Z,93.70
2018-05-16T03:54:34.503Z,93.50
2018-05-16T03:57:02.127Z,93.40
2018-05-16T03:59:41.781Z,93.80
2018-05-16T04:02:22.358Z,93.70
2018-05-16T04:04:51.306Z,93.50
2018-05-16T04:07:19.711Z,93.00
2018-05-16T04:09:47.328Z,93.30
2018-05-16T04:12:14.881Z,92.90
2018-05-16T04:14:43.244Z,93.10
2018-05-16T04:17:11.614Z,93.10
2018-05-16T04:19:40.143Z,93.10
2018-05-16T04:22:07.651Z,92.70
2018-05-16T04:24:35.162Z,92.80
2018-05-16T04:27:02.689Z,92.20
2018-05-16T04:29:30.189Z,92.90
2018-05-16T04:31:57.717Z,92.80
2018-05-16T04:34:26.613Z,92.30
2018-05-16T04:36:54.883Z,92.40
2018-05-16T04:39:23.189Z,92.60
2018-05-16T04:41:50.716Z,92.60
2018-05-16T04:44:18.246Z,92.80
2018-05-16T04:46:45.757Z,92.90
2018-05-16T04:49:13.269Z,92.90
2018-05-16T04:51:40.813Z,93.00
2018-05-16T04:54:09.128Z,91.70
2018-05-16T04:56:38.129Z,92.00
2018-05-16T04:59:07.300Z,92.40
2018-05-16T05:01:34.832Z,92.40
2018-05-16T05:04:02.356Z,91.90
2018-05-16T05:06:31.205Z,91.10
2018-05-16T05:08:58.866Z,91.10
2018-05-16T05:11:26.880Z,91.20
2018-05-16T05:13:55.172Z,90.80
2018-05-16T05:16:22.698Z,90.80
2018-05-16T05:18:50.227Z,90.60
2018-05-16T05:21:17.755Z,90.90
2018-05-16T05:23:45.260Z,90.90
2018-05-16T05:26:12.773Z,90.70
2018-05-16T05:28:40.880Z,91.40
2018-05-16T05:31:09.545Z,91.10
2018-05-16T05:33:37.082Z,90.70
2018-05-16T05:36:05.085Z,91.20
2018-05-16T05:38:32.584Z,90.50
2018-05-16T05:41:01.664Z,90.90
2018-05-16T05:43:29.243Z,90.50
2018-05-16T05:45:56.708Z,90.10
2018-05-16T05:48:24.967Z,90.70
2018-05-16T05:50:52.461Z,90.70
2018-05-16T05:53:19.977Z,90.30
2018-05-16T05:55:47.480Z,90.50
2018-05-16T05:58:15.001Z,89.60
2018-05-16T06:00:42.496Z,90.30
2018-05-16T06:03:09.993Z,89.60
2018-05-16T06:05:37.508Z,90.00
2018-05-16T06:08:05.000Z,88.50
2018-05-16T06:10:32.521Z,88.90
2018-05-16T06:13:00.781Z,88.80
2018-05-16T06:15:29.097Z,87.20
2018-05-16T06:17:57.076Z,87.20
2018-05-16T06:20:27.411Z,86.30
2018-05-16T06:22:55.737Z,86.20
2018-05-16T06:25:24.006Z,85.80
2018-05-16T06:27:52.280Z,85.90
2018-05-16T06:30:19.803Z,85.90
2018-05-16T06:32:47.338Z,86.00
2018-05-16T06:35:14.862Z,85.20
2018-05-16T06:37:43.139Z,87.60
2018-05-16T06:40:12.265Z,85.40
2018-05-16T06:42:39.779Z,85.40
2018-05-16T06:45:07.599Z,84.70
2018-05-16T06:47:35.121Z,85.80
2018-05-16T06:50:03.387Z,81.90
2018-05-16T06:52:30.884Z,81.70
2018-05-16T06:54:58.413Z,81.80
2018-05-16T06:57:26.676Z,80.00
2018-05-16T06:59:54.223Z,80.00
2018-05-16T07:02:21.985Z,83.30
2018-05-16T07:04:49.484Z,81.30
2018-05-16T07:07:17.771Z,81.60
2018-05-16T07:09:45.266Z,81.60
2018-05-16T07:12:12.789Z,82.20
2018-05-16T07:14:40.289Z,80.80
2018-05-16T07:17:07.818Z,81.10
2018-05-16T07:19:35.486Z,79.50
2018-05-16T07:22:04.121Z,78.60
2018-05-16T07:24:31.786Z,79.00
2018-05-16T07:26:59.729Z,79.70
2018-05-16T07:29:27.248Z,78.00
2018-05-16T07:31:54.780Z,78.60
2018-05-16T07:34:23.089Z,77.40
2018-05-16T07:36:50.612Z,76.90
2018-05-16T07:39:18.111Z,76.80
2018-05-16T07:41:45.609Z,78.10
2018-05-16T07:44:13.132Z,76.20
2018-05-16T07:46:41.514Z,76.70
2018-05-16T07:49:10.428Z,76.30
2018-05-16T07:51:38.764Z,76.30
2018-05-16T07:54:07.030Z,77.70
2018-05-16T07:56:35.314Z,77.60
2018-05-16T07:59:03.575Z,78.50
2018-05-16T08:01:31.860Z,74.20
2018-05-16T08:06:54.325Z,73.40
2018-05-16T08:09:21.913Z,73.30
2018-05-16T08:11:49.433Z,73.30
2018-05-16T08:14:17.706Z,71.20
2018-05-16T08:16:45.977Z,72.30
2018-05-16T08:19:13.507Z,72.30
2018-05-16T08:21:41.846Z,71.80
2018-05-16T08:24:10.118Z,71.20
2018-05-16T08:26:38.396Z,72.90
2018-05-16T08:29:08.490Z,68.50
2018-05-16T08:31:39.416Z,69.00
2018-05-16T08:34:07.309Z,68.80
2018-05-16T08:36:35.619Z,66.20
2018-05-16T08:39:03.157Z,66.10
2018-05-16T08:41:31.417Z,65.50
2018-05-16T08:44:01.656Z,67.90
2018-05-16T08:46:30.724Z,65.40
2018-05-16T08:48:58.248Z,65.50
2018-05-16T08:51:25.949Z,67.90
2018-05-16T08:53:53.463Z,66.00
2018-05-16T08:56:20.984Z,67.70
2018-05-16T08:58:49.249Z,65.60
2018-05-16T09:01:16.854Z,65.60
2018-05-16T09:03:44.733Z,65.10
2018-05-16T09:06:12.283Z,64.10
2018-05-16T09:08:39.801Z,63.70
2018-05-16T09:11:08.073Z,66.70
2018-05-16T09:13:36.365Z,66.60
2018-05-16T09:16:05.194Z,65.40
2018-05-16T09:18:32.689Z,65.40
2018-05-16T09:21:01.120Z,65.70
2018-05-16T09:23:28.946Z,67.70
2018-05-16T09:25:56.464Z,66.50
2018-05-16T09:28:23.961Z,67.10
2018-05-16T09:30:51.456Z,61.30
2018-05-16T09:33:18.980Z,60.30
2018-05-16T09:35:49.528Z,61.00
2018-05-16T09:38:18.754Z,63.80
2018-05-16T09:40:46.254Z,63.80
2018-05-16T09:43:13.750Z,64.30
2018-05-16T09:45:41.285Z,64.20
2018-05-16T09:48:09.254Z,64.20
2018-05-16T09:50:36.773Z,63.60
2018-05-16T09:53:04.272Z,64.50
2018-05-16T09:55:32.245Z,61.40
2018-05-16T09:58:03.538Z,61.80
2018-05-16T10:00:31.851Z,61.60
2018-05-16T10:02:59.372Z,58.90
2018-05-16T10:05:27.319Z,58.00
2018-05-16T10:07:55.589Z,59.60
2018-05-16T10:10:24.197Z,58.30
2018-05-16T10:12:51.699Z,58.30
2018-05-16T10:15:19.219Z,57.70
2018-05-16T10:17:48.096Z,57.60
2018-05-16T10:20:15.598Z,59.50
2018-05-16T10:22:43.951Z,58.90
2018-05-16T10:25:12.055Z,60.40
2018-05-16T10:27:40.313Z,57.90
2018-05-16T10:30:07.811Z,58.90
2018-05-16T10:32:35.313Z,58.40
2018-05-16T10:35:02.836Z,59.00
2018-05-16T10:37:31.107Z,59.70
2018-05-16T10:39:59.100Z,59.70
2018-05-16T10:42:27.356Z,58.20
2018-05-16T10:44:55.620Z,55.20
2018-05-16T10:47:23.140Z,54.80
2018-05-16T10:49:50.637Z,54.70
2018-05-16T10:52:18.221Z,53.70
2018-05-16T10:54:47.031Z,53.10
2018-05-16T10:57:14.529Z,52.10
2018-05-16T10:59:42.662Z,51.80
2018-05-16T11:02:10.177Z,53.60
2018-05-16T11:04:37.698Z,53.80
2018-05-16T11:07:05.763Z,53.70
2018-05-16T11:09:34.130Z,51.60
2018-05-16T11:12:01.653Z,53.80
2018-05-16T11:14:29.916Z,53.20
2018-05-16T11:16:57.438Z,52.80
2018-05-16T11:19:24.928Z,54.10
2018-05-16T11:21:52.443Z,54.60
2018-05-16T11:24:19.970Z,54.70
2018-05-16T11:26:48.057Z,54.10
2018-05-16T11:29:16.325Z,55.40
2018-05-16T11:31:45.389Z,50.80
2018-05-16T11:34:13.001Z,50.70
2018-05-16T11:36:40.624Z,50.80
2018-05-16T11:39:09.560Z,52.50
2018-05-16T11:41:37.852Z,52.40
2018-05-16T11:44:05.376Z,51.40
2018-05-16T11:46:33.637Z,50.60
2018-05-16T11:49:02.672Z,44.70
2018-05-16T11:51:30.179Z,44.70
2018-05-16T11:53:58.144Z,47.40
2018-05-16T11:56:32.185Z,49.10
2018-05-16T11:59:00.457Z,49.60
2018-05-16T12:01:29.387Z,45.20
2018-05-16T12:03:56.887Z,45.10
2018-05-16T12:06:24.389Z,40.10
2018-05-16T12:08:52.488Z,39.00
2018-05-16T12:11:19.986Z,36.60
2018-05-16T12:13:47.521Z,36.10
2018-05-16T12:16:15.013Z,39.30
2018-05-16T12:18:43.296Z,46.00
2018-05-16T12:21:11.592Z,48.80
2018-05-16T12:23:39.569Z,48.90
2018-05-16T12:26:07.089Z,52.00
2018-05-16T12:28:34.584Z,54.20
2018-05-16T12:31:04.725Z,58.40
2018-05-16T12:33:32.251Z,64.30
2018-05-16T12:36:00.513Z,71.50
2018-05-16T12:38:28.036Z,71.60
2018-05-16T12:40:55.532Z,73.10
2018-05-16T12:43:40.697Z,74.70
2018-05-16T12:46:08.201Z,74.70
2018-05-16T12:48:35.697Z,72.40
2018-05-16T12:51:03.228Z,70.90
2018-05-16T12:53:30.734Z,60.60
2018-05-16T12:55:58.253Z,56.90
2018-05-16T12:58:25.752Z,57.20
2018-05-16T13:00:53.254Z,51.20
2018-05-16T13:03:20.778Z,49.20
2018-05-16T13:05:49.042Z,48.80
2018-05-16T13:08:16.568Z,48.70
2018-05-16T13:10:44.076Z,45.30
2018-05-16T13:13:12.335Z,42.20
2018-05-16T13:15:39.889Z,42.20
2018-05-16T13:18:07.430Z,42.50
2018-05-16T13:20:34.936Z,38.70
2018-05-16T13:23:03.206Z,38.80
2018-05-16T13:25:31.480Z,40.70
2018-05-16T13:28:00.559Z,43.40
2018-05-16T13:30:28.065Z,43.40
2018-05-16T13:32:55.590Z,43.50
2018-05-16T13:35:23.889Z,48.70
2018-05-16T13:37:51.389Z,48.60
2018-05-16T13:40:18.917Z,48.30
2018-05-16T13:42:46.418Z,48.90
2018-05-16T13:45:13.941Z,47.80
2018-05-16T13:47:41.445Z,48.40
2018-05-16T13:50:08.950Z,45.30
2018-05-16T13:52:36.491Z,47.60
2018-05-16T13:55:04.758Z,46.20
2018-05-16T13:57:33.053Z,47.90
2018-05-16T14:00:01.403Z,48.90
2018-05-16T14:02:28.840Z,48.90
2018-05-16T14:04:56.372Z,47.60
2018-05-16T14:07:23.886Z,47.70
2018-05-16T14:09:52.235Z,45.50
2018-05-16T14:12:19.747Z,46.20
2018-05-16T14:14:47.248Z,45.10
2018-05-16T14:17:15.547Z,50.10
2018-05-16T14:19:43.047Z,50.00
2018-05-16T14:22:10.584Z,51.40
2018-05-16T14:24:38.876Z,55.80
2018-05-16T14:27:06.388Z,55.80
2018-05-16T14:29:34.697Z,57.40
2018-05-16T14:32:02.977Z,56.00
2018-05-16T14:34:31.551Z,56.60
2018-05-16T14:36:59.830Z,59.80
2018-05-16T14:39:27.329Z,59.60
2018-05-16T14:41:54.855Z,64.40
2018-05-16T14:44:23.128Z,66.20
2018-05-16T14:46:51.393Z,64.80
2018-05-16T14:49:18.914Z,64.70
2018-05-16T14:51:46.408Z,64.30
2018-05-16T14:54:13.938Z,66.40
2018-05-16T14:56:41.444Z,67.20
2018-05-16T14:59:09.708Z,64.10
2018-05-16T15:01:37.541Z,64.10
2018-05-16T15:04:05.049Z,60.20
2018-05-16T15:06:33.342Z,60.80
2018-05-16T15:09:00.843Z,60.70
2018-05-16T15:11:28.348Z,60.00
2018-05-16T15:13:56.635Z,58.50
2018-05-16T15:16:24.612Z,58.50
2018-05-16T15:18:52.140Z,58.70
2018-05-16T15:21:19.743Z,58.00
2018-05-16T15:23:47.161Z,60.20
2018-05-16T15:26:16.146Z,58.50
2018-05-16T15:28:43.644Z,58.50
2018-05-16T15:31:11.176Z,56.00
2018-05-16T15:33:38.682Z,56.50
2018-05-16T15:36:06.184Z,55.70
2018-05-16T15:38:33.706Z,53.80
2018-05-16T15:41:01.773Z,50.30
2018-05-16T15:43:29.306Z,53.80
2018-05-16T15:45:56.805Z,50.70
2018-05-16T15:48:25.256Z,53.10
2018-05-16T15:50:52.803Z,50.80
2018-05-16T15:53:20.694Z,49.90
2018-05-16T15:55:49.159Z,52.60
2018-05-16T15:58:16.669Z,51.00
2018-05-16T16:00:44.977Z,53.30
2018-05-16T16:03:13.268Z,51.20
2018-05-16T16:05:40.778Z,51.20
2018-05-16T16:08:08.400Z,50.40
2018-05-16T16:10:35.846Z,48.70
2018-05-16T16:13:03.360Z,50.20
2018-05-16T16:15:30.900Z,49.80
2018-05-16T16:17:58.396Z,50.80
2018-05-16T16:20:26.683Z,50.60
2018-05-16T16:22:55.017Z,51.50
2018-05-16T16:25:22.513Z,51.40
2018-05-16T16:27:50.752Z,50.00
2018-05-16T16:30:18.274Z,52.60
2018-05-16T16:32:45.816Z,50.70
2018-05-16T16:35:14.092Z,52.00
2018-05-16T16:37:43.227Z,49.60
2018-05-16T16:40:10.771Z,49.60
2018-05-16T16:42:38.298Z,51.00
2018-05-16T16:45:06.635Z,50.70
2018-05-16T16:47:34.729Z,50.60
2018-05-16T16:50:02.240Z,50.60
2018-05-16T16:52:29.769Z,52.00
2018-05-16T16:54:58.060Z,54.70
2018-05-16T16:57:25.662Z,54.80
2018-05-16T16:59:53.196Z,54.10
2018-05-16T17:02:20.701Z,54.60
2018-05-16T17:04:48.235Z,55.10
2018-05-16T17:07:15.737Z,57.20
2018-05-16T17:09:43.699Z,57.90
2018-05-16T17:12:11.546Z,57.80
2018-05-16T17:14:39.120Z,58.50
2018-05-16T17:17:06.603Z,59.40
2018-05-16T17:19:34.874Z,59.20
2018-05-16T17:22:03.649Z,60.60
2018-05-16T17:24:31.160Z,60.50
2018-05-16T17:26:58.688Z,59.80
2018-05-16T17:29:26.184Z,60.90
2018-05-16T17:31:53.736Z,61.50
2018-05-16T17:34:21.264Z,61.10
2018-05-16T17:36:49.524Z,61.00
2018-05-16T17:39:17.229Z,61.00
2018-05-16T17:41:44.749Z,62.40
2018-05-16T17:44:12.272Z,62.20
2018-05-16T17:46:39.770Z,61.00
2018-05-16T17:49:08.019Z,61.00
2018-05-16T17:51:35.540Z,60.70
2018-05-16T17:54:03.045Z,61.50
2018-05-16T17:56:30.530Z,62.50
2018-05-16T17:58:59.077Z,62.40
2018-05-16T18:01:26.603Z,62.40
2018-05-16T18:03:54.170Z,63.50
2018-05-16T18:06:21.675Z,62.90
2018-05-16T18:08:49.956Z,63.40
2018-05-16T18:11:18.226Z,61.90
2018-05-16T18:13:59.095Z,63.30
2018-05-16T18:16:39.166Z,63.30
2018-05-16T18:19:07.406Z,63.30
2018-05-16T18:21:34.890Z,63.30
2018-05-16T18:24:03.157Z,63.00
2018-05-16T18:26:31.418Z,63.60
2018-05-16T18:28:58.937Z,63.40
2018-05-16T18:31:26.422Z,63.20
2018-05-16T18:33:53.918Z,62.80
2018-05-16T18:36:22.186Z,64.40
2018-05-16T18:38:50.435Z,64.60
2018-05-16T18:41:17.940Z,64.60
2018-05-16T18:43:45.427Z,64.40
2018-05-16T18:46:12.916Z,66.30
2018-05-16T18:48:40.431Z,68.40
2018-05-16T18:51:08.087Z,67.70
2018-05-16T18:53:35.637Z,68.40
2018-05-16T18:56:03.266Z,70.60
2018-05-16T18:58:31.430Z,69.00
2018-05-16T19:00:59.035Z,69.00
2018-05-16T19:03:26.734Z,69.20
2018-05-16T19:05:54.291Z,69.20
2018-05-16T19:08:21.787Z,69.20
2018-05-16T19:10:50.399Z,71.60
2018-05-16T19:13:17.942Z,71.60
2018-05-16T19:15:45.432Z,73.50
2018-05-16T19:18:12.930Z,73.90
2018-05-16T19:20:40.412Z,74.50
2018-05-16T19:23:07.915Z,74.00
2018-05-16T19:25:35.414Z,73.70
2018-05-16T19:28:03.729Z,72.00
2018-05-16T19:30:31.408Z,71.90
2018-05-16T19:32:58.903Z,71.60
2018-05-16T19:35:27.256Z,71.10
2018-05-16T19:37:55.187Z,71.10
2018-05-16T19:40:22.870Z,71.50
2018-05-16T19:42:51.235Z,72.10
2018-05-16T19:45:19.577Z,73.50
2018-05-16T19:47:47.261Z,72.70
2018-05-16T19:50:14.832Z,73.20
2018-05-16T19:52:42.584Z,73.00
2018-05-16T19:55:10.241Z,72.70
2018-05-16T19:57:37.931Z,72.90
2018-05-16T20:00:05.772Z,73.80
2018-05-16T20:02:33.642Z,73.50
2018-05-16T20:05:01.506Z,73.60
2018-05-16T20:07:30.103Z,74.60
2018-05-16T20:09:58.695Z,74.80
2018-05-16T20:12:26.246Z,74.70
2018-05-16T20:14:53.780Z,73.70
2018-05-16T20:17:21.263Z,74.10
2018-05-16T20:19:48.780Z,74.00
2018-05-16T20:22:16.289Z,74.00
2018-05-16T20:24:43.770Z,75.40
2018-05-16T20:27:11.284Z,76.00
2018-05-16T20:29:38.887Z,76.40
2018-05-16T20:32:06.383Z,76.20
2018-05-16T20:34:33.886Z,76.20
2018-05-16T20:37:01.376Z,75.80
2018-05-16T20:39:29.621Z,75.30
2018-05-16T20:41:57.130Z,75.30
2018-05-16T20:44:24.616Z,75.40
2018-05-16T20:46:52.138Z,75.80
2018-05-16T20:49:19.618Z,75.90
2018-05-16T20:51:47.106Z,76.30
2018-05-16T20:54:14.607Z,76.30
2018-05-16T20:56:42.896Z,76.30
2018-05-16T20:59:10.430Z,76.30
2018-05-16T21:01:38.681Z,75.70
2018-05-16T21:04:06.159Z,75.60
2018-05-16T21:06:34.438Z,75.80
2018-05-16T21:09:02.685Z,76.20
2018-05-16T21:11:30.184Z,76.20
2018-05-16T21:13:57.666Z,76.40
2018-05-16T21:16:25.215Z,76.00
2018-05-16T21:18:52.714Z,76.00
2018-05-16T21:21:20.193Z,75.90
2018-05-16T21:23:47.705Z,75.80
2018-05-16T21:26:15.181Z,75.80
2018-05-16T21:28:42.689Z,75.90
2018-05-16T21:31:10.189Z,76.60
2018-05-16T21:33:37.674Z,76.20
2018-05-16T21:36:05.182Z,76.30
2018-05-16T21:38:32.705Z,76.40
2018-05-16T21:41:00.946Z,76.20
2018-05-16T21:43:28.452Z,76.20
2018-05-16T21:45:55.933Z,76.10
2018-05-16T21:48:23.436Z,75.80
2018-05-16T21:50:51.699Z,77.00
2018-05-16T21:53:19.175Z,77.00
2018-05-16T21:55:47.451Z,79.70
2018-05-16T21:58:14.925Z,78.80
2018-05-16T22:00:43.185Z,80.60
2018-05-16T22:03:11.439Z,81.60
2018-05-16T22:05:38.914Z,81.60
2018-05-16T22:08:06.437Z,84.40
2018-05-16T22:10:33.934Z,86.50
2018-05-16T22:13:02.216Z,89.90
2018-05-16T22:15:30.633Z,89.90
2018-05-16T22:17:58.123Z,89.90
2018-05-16T22:20:25.740Z,87.90
2018-05-16T22:22:53.227Z,90.10
2018-05-16T22:25:20.730Z,88.60
2018-05-16T22:27:48.983Z,90.20
2018-05-16T22:30:16.078Z,90.20
2018-05-16T22:32:49.230Z,88.40
2018-05-16T22:35:23.230Z,86.70
2018-05-16T22:37:56.442Z,86.70
2018-05-16T22:40:30.523Z,90.40
2018-05-16T22:42:57.536Z,90.40
2018-05-16T22:48:26.386Z,91.20
2018-05-16T22:50:53.870Z,90.20
2018-05-16T22:53:22.145Z,90.80
2018-05-16T22:55:50.399Z,90.60
2018-05-16T22:58:18.669Z,90.10
2018-05-16T23:00:46.188Z,90.10
2018-05-16T23:03:14.136Z,90.40
2018-05-16T23:05:41.680Z,90.70
2018-05-16T23:08:10.880Z,90.50
2018-05-16T23:10:39.156Z,89.60
2018-05-16T23:13:07.456Z,89.50
2018-05-16T23:15:35.887Z,89.20
2018-05-16T23:18:03.421Z,90.00
2018-05-16T23:20:30.929Z,89.50
2018-05-16T23:22:59.411Z,90.10
2018-05-16T23:25:28.157Z,91.00
2018-05-16T23:27:55.671Z,91.00
2018-05-16T23:30:24.012Z,90.70
2018-05-16T23:32:51.524Z,89.10
2018-05-16T23:35:19.973Z,90.60
2018-05-16T23:37:55.143Z,90.20
2018-05-16T23:40:23.500Z,90.20
2018-05-16T23:42:51.799Z,91.00
2018-05-16T23:45:19.323Z,91.00
2018-05-16T23:47:48.198Z,90.60
2018-05-16T23:50:15.744Z,90.50
2018-05-16T23:52:44.045Z,90.40
2018-05-16T23:55:11.601Z,90.70
2018-05-16T23:57:39.112Z,90.20
